Flight Track Log - Related Links

Times and Time Zones

All times are in EDT time to prevent confusion due to time zone crossing. See the N934DL flight status page for this flight to view local times or setup timezone preferences in your user account.

Time Position Orientation Groundspeed Altitude Reporting Facility
EDT Latitude Longitude Course Direction KTS MPH feet Rate Location/Type
Thu 07:14:54 AM 41.9478 -72.6744 340° North 156 180 1,300  Level Boston Center
Thu 07:16:08 AM 41.9897 -72.5853 58° Northeast 244 281 4,200 3,045 Climbing Boston Center
Thu 07:17:00 AM 42.2206 -72.9020 340° North  Level FlightAware Approximate
Thu 07:17:08 AM 42.0544 -72.6106 344° North 209 241 8,100  Level Boston Center
Thu 07:18:00 AM 42.3222 -72.9648 334° Northwest  Level FlightAware Approximate
Thu 07:18:08 AM 42.1064 -72.6836 314° West 241 277 10,800  Level Boston Center
Thu 07:19:00 AM 42.4262 -73.0213 340° North  Level FlightAware Approximate
Thu 07:19:08 AM 42.1747 -72.7792 314° West 306 352 12,400  Level Boston Center
Thu 07:20:00 AM 42.5316 -73.0740 340° North  Level FlightAware Approximate
Thu 07:20:08 AM 42.2475 -72.8833 313° West 373 429 15,500  Level Boston Center
Thu 07:21:08 AM 42.3344 -72.9736 323° Northwest 388 447 18,000 2,100 Climbing Boston Center
Thu 07:22:08 AM 42.4281 -73.0167 341° North 385 443 19,700 1,000 Climbing Boston Center
Thu 07:23:08 AM 42.5319 -73.0739 338° Northwest 390 449 20,000 450 Climbing Boston Center
Thu 07:24:08 AM 42.6358 -73.1400 335° Northwest 400 460 20,600 1,000 Climbing Boston Center
Thu 07:25:08 AM 42.7439 -73.1922 340° North 405 466 22,000 900 Climbing Boston Center
Thu 07:26:08 AM 42.8561 -73.2247 348° North 405 466 22,400 1,000 Climbing Boston Center
Thu 07:27:08 AM 42.9600 -73.2942 334° Northwest 405 466 24,000 1,800 Climbing Boston Center
Thu 07:28:08 AM 43.0044 -73.4622 290° West 388 447 26,000 2,000 Climbing Boston Center
Thu 07:29:08 AM 43.0131 -73.6383 274° West 416 479 28,000 1,850 Climbing Boston Center
Thu 07:30:08 AM 43.0236 -73.8117 275° West 436 502 29,700 1,650 Climbing Boston Center
Thu 07:31:08 AM 43.0381 -73.9856 277° West 455 524 31,300 1,550 Climbing Boston Center
Thu 07:32:08 AM 43.0503 -74.1589 276° West 468 539 32,800 1,550 Climbing Boston Center
Thu 07:33:08 AM 43.0600 -74.3269 275° West 463 533 34,400 1,250 Climbing Boston Center
Thu 07:34:08 AM 43.0697 -74.4950 275° West 457 526 35,300 800 Climbing Boston Center
Thu 07:35:08 AM 43.0792 -74.6603 275° West 451 519 36,000 350 Climbing Boston Center
Thu 07:36:08 AM 43.0881 -74.8311 274° West 451 519 36,000  Level Boston Center
Thu 07:37:08 AM 43.0969 -74.9964 274° West 446 513 36,000  Level Boston Center
Thu 07:38:08 AM 43.1058 -75.1617 274° West 441 507 36,000  Level Boston Center
Thu 07:39:08 AM 43.1161 -75.3272 275° West 441 507 36,000  Level Boston Center
Thu 07:40:08 AM 43.1267 -75.4900 275° West 441 507 36,000  Level Boston Center
Thu 07:41:08 AM 43.1347 -75.6525 274° West 441 507 36,000  Level Boston Center
Thu 07:42:08 AM 43.1444 -75.8211 275° West 441 507 36,000  Level Boston Center
Thu 07:43:08 AM 43.1519 -75.9836 274° West 441 507 36,000  Level Boston Center
Thu 07:44:08 AM 43.1611 -76.1522 274° West 441 507 36,000  Level Boston Center
Thu 07:46:23 AM 43.1353 -76.5258 265° West 430 495 36,000  Level Cleveland Center
Thu 07:47:23 AM 43.1222 -76.6917 264° West 435 501 36,000  Level Cleveland Center
Thu 07:48:23 AM 43.1061 -76.8378 261° West 435 501 36,000  Level Cleveland Center
Thu 07:49:24 AM 43.0925 -77.0036 264° West 435 501 36,000  Level Cleveland Center
Thu 07:50:23 AM 43.0772 -77.1836 263° West 443 510 36,000  Level Cleveland Center
Thu 07:51:23 AM 43.0631 -77.3436 263° West 443 510 36,000  Level Cleveland Center
Thu 07:52:23 AM 43.0486 -77.5064 263° West 438 504 36,000  Level Cleveland Center
Thu 07:53:23 AM 43.0342 -77.6689 263° West 438 504 36,000  Level Cleveland Center
Thu 07:54:23 AM 43.0175 -77.8344 262° West 438 504 36,000  Level Cleveland Center
Thu 07:55:23 AM 43.0003 -77.9914 262° West 438 504 36,000  Level Cleveland Center
Thu 07:56:23 AM 42.9850 -78.1539 263° West 433 498 36,000  Level Cleveland Center
Thu 07:57:23 AM 42.9675 -78.3161 262° West 433 498 36,000  Level Cleveland Center
Thu 07:58:23 AM 42.9494 -78.4758 261° West 433 498 36,000  Level Cleveland Center
Thu 07:59:23 AM 42.9336 -78.6378 262° West 428 493 36,000  Level Cleveland Center
Thu 08:00:23 AM 42.9111 -78.7975 259° West 428 493 36,000  Level Cleveland Center
Thu 08:01:23 AM 42.8864 -78.9567 258° West 428 493 36,000  Level Cleveland Center
Thu 08:02:23 AM 42.8614 -79.1161 258° West 428 493 36,000 -700 Level Cleveland Center
Thu 08:03:23 AM 42.8406 -79.2750 260° West 428 493 34,600 -1,450 Descending Cleveland Center
Thu 08:04:23 AM 42.8192 -79.4339 260° West 428 493 33,100 -800 Descending Cleveland Center
Thu 08:05:23 AM 42.7936 -79.5900 257° West 428 493 33,000 -50 Descending Cleveland Center
Thu 08:06:23 AM 42.7719 -79.7375 259° West 422 486 33,000  Level Cleveland Center
Thu 08:07:23 AM 42.7542 -79.8878 261° West 409 471 33,000  Level Cleveland Center
Thu 08:08:23 AM 42.7467 -80.0461 266° West 414 476 33,000  Level Cleveland Center
Thu 08:09:23 AM 42.7389 -80.1958 266° West 414 476 33,000  Level Cleveland Center
Thu 08:10:23 AM 42.7331 -80.3542 267° West 414 476 33,000 -350 Level Cleveland Center
Thu 08:11:23 AM 42.7269 -80.4900 267° West 414 476 32,300 -1,350 Descending Cleveland Center
Thu 08:12:23 AM 42.7186 -80.6397 266° West 409 471 30,300 -1,900 Descending Cleveland Center
Thu 08:13:23 AM 42.7142 -80.7839 268° West 391 450 28,500 -1,800 Descending Cleveland Center
Thu 08:14:23 AM 42.7036 -80.9278 264° West 381 438 26,700 -1,750 Descending Cleveland Center
Thu 08:15:23 AM 42.6906 -81.0606 262° West 375 432 25,000 -1,350 Descending Cleveland Center
Thu 08:16:23 AM 42.6753 -81.1931 261° West 364 419 24,000 -950 Descending Cleveland Center
Thu 08:17:23 AM 42.6578 -81.3258 260° West 364 419 23,100 -1,450 Descending Cleveland Center
Thu 08:18:23 AM 42.6422 -81.4892 263° West 376 433 21,100 -1,550 Descending Cleveland Center
Thu 08:19:23 AM 42.6222 -81.6328 259° West 390 449 20,000 -1,150 Descending Cleveland Center
Thu 08:20:23 AM 42.6042 -81.7764 260° West 390 449 18,800 -1,100 Descending Cleveland Center
Thu 08:21:23 AM 42.5881 -81.9058 260° West 390 449 17,800 -1,050 Descending Cleveland Center
Thu 08:22:23 AM 42.5717 -82.0464 261° West 390 449 16,700 -1,600 Descending Cleveland Center
Thu 08:23:08 AM 42.5578 -82.1644 261° West 380 437 15,000 -2,000 Descending Cleveland Center
Thu 08:23:23 AM 42.5533 -82.1869 255° West 390 449 14,700 -2,060 Descending Cleveland Center
Thu 08:24:15 AM 42.5386 -82.3247 262° West 374 430 12,700 -1,434 Descending Cleveland Center
Thu 08:25:16 AM 42.5219 -82.4594 261° West 356 410 12,000 -393 Descending Cleveland Center
Thu 08:26:17 AM 42.4992 -82.5797 256° West 318 366 11,900 -689 Descending Cleveland Center
Thu 08:27:18 AM 42.4619 -82.6828 244° Southwest 289 333 10,600 -1,328 Descending Cleveland Center
Thu 08:28:19 AM 42.4289 -82.7744 244° Southwest 272 313 9,200 -1,328 Descending Cleveland Center
Thu 08:29:20 AM 42.4144 -82.8697 258° West 277 319 7,900 -1,082 Descending Cleveland Center
Thu 08:30:21 AM 42.4186 -82.9739 273° West 272 313 7,000 -446 Descending Cleveland Center
Thu 08:31:21 AM 42.4247 -83.0753 275° West 255 293 7,000 -397 Level Cleveland Center
Thu 08:32:22 AM 42.4333 -83.1572 278° West 215 247 6,200 -1,033 Descending Cleveland Center
Thu 08:33:23 AM 42.3947 -83.2064 223° Southwest 184 212 4,900 -1,279 Descending Cleveland Center
Thu 08:34:24 AM 42.3503 -83.2383 208° Southwest 184 212 3,600 -1,131 Descending Cleveland Center
Thu 08:35:25 AM 42.3078 -83.2703 209° Southwest 179 206 2,600 -984 Descending Cleveland Center

Login

Don't have an account? Register now (free) for customized features, flight alerts, and more!